createdAt,value
2018-09-10T00:00:23.922Z,1004.21
2018-09-10T00:01:34.034Z,1004.17
2018-09-10T00:02:44.358Z,1004.2
2018-09-10T00:03:54.443Z,1004.22
2018-09-10T00:05:04.526Z,1004.21
2018-09-10T00:06:14.607Z,1004.18
2018-09-10T00:07:24.158Z,1004.19
2018-09-10T00:08:34.296Z,1004.17
2018-09-10T00:09:44.133Z,1004.18
2018-09-10T00:10:54.199Z,1004.14
2018-09-10T00:12:04.010Z,1004.13
2018-09-10T00:13:14.093Z,1004.13
2018-09-10T00:14:23.960Z,1004.1
2018-09-10T00:15:33.785Z,1004.1
2018-09-10T00:16:43.617Z,1004.12
2018-09-10T00:17:53.701Z,1004.11
2018-09-10T00:19:03.803Z,1004.11
2018-09-10T00:20:13.929Z,1004.14
2018-09-10T00:21:24.011Z,1004.14
2018-09-10T00:22:34.094Z,1004.18
2018-09-10T00:23:44.173Z,1004.16
2018-09-10T00:24:54.240Z,1004.17
2018-09-10T00:26:04.318Z,1004.15
2018-09-10T00:27:14.382Z,1004.21
2018-09-10T00:28:24.453Z,1004.21
2018-09-10T00:29:34.534Z,1004.22
2018-09-10T00:30:44.608Z,1004.21
2018-09-10T00:31:54.662Z,1004.28
2018-09-10T00:33:04.758Z,1004.2
2018-09-10T00:34:15.069Z,1004.28
2018-09-10T00:35:25.140Z,1004.26
2018-09-10T00:36:34.688Z,1004.24
2018-09-10T00:37:44.503Z,1004.24
2018-09-10T00:38:54.582Z,1004.23
2018-09-10T00:40:04.660Z,1004.24
2018-09-10T00:41:14.716Z,1004.27
2018-09-10T00:42:24.806Z,1004.28
2018-09-10T00:43:34.934Z,1004.32
2018-09-10T00:44:45.023Z,1004.32
2018-09-10T00:45:54.850Z,1004.34
2018-09-10T00:47:04.966Z,1004.36
2018-09-10T00:48:15.088Z,1004.34
2018-09-10T00:49:25.307Z,1004.36
2018-09-10T00:50:35.415Z,1004.34
2018-09-10T00:51:45.481Z,1004.32
2018-09-10T00:52:55.565Z,1004.36
2018-09-10T00:54:06.087Z,1004.34
2018-09-10T00:55:15.958Z,1004.33
2018-09-10T00:56:26.028Z,1004.3
2018-09-10T00:57:36.121Z,1004.35
2018-09-10T00:58:46.185Z,1004.36
2018-09-10T00:59:55.495Z,1004.3
2018-09-10T01:01:05.329Z,1004.32
2018-09-10T01:02:15.441Z,1004.3
2018-09-10T01:03:25.274Z,1004.3
2018-09-10T01:04:35.359Z,1004.29
2018-09-10T01:05:45.443Z,1004.31
2018-09-10T01:06:55.517Z,1004.32
2018-09-10T01:08:05.689Z,1004.35
2018-09-10T01:09:15.541Z,1004.33
2018-09-10T01:10:25.627Z,1004.34
2018-09-10T01:11:35.426Z,1004.36
2018-09-10T01:12:45.506Z,1004.41
2018-09-10T01:13:55.331Z,1004.37
2018-09-10T01:15:05.659Z,1004.41
2018-09-10T01:16:15.737Z,1004.38
2018-09-10T01:17:25.800Z,1004.4
2018-09-10T01:18:35.861Z,1004.4
2018-09-10T01:19:45.931Z,1004.39
2018-09-10T01:20:56.020Z,1004.42
2018-09-10T01:22:06.106Z,1004.42
2018-09-10T01:23:16.179Z,1004.4
2018-09-10T01:24:26.144Z,1004.34
2018-09-10T01:25:36.231Z,1004.28
2018-09-10T01:26:46.293Z,1004.26
2018-09-10T01:27:56.380Z,1004.22
2018-09-10T01:29:06.471Z,1004.16
2018-09-10T01:30:16.606Z,1004.14
2018-09-10T01:31:26.667Z,1004.12
2018-09-10T01:32:36.474Z,1004.14
2018-09-10T01:33:46.546Z,1004.1
2018-09-10T01:34:56.613Z,1004.11
2018-09-10T01:36:06.679Z,1004.1
2018-09-10T01:37:16.766Z,1004.11
2018-09-10T01:38:26.850Z,1004.11
2018-09-10T01:39:36.908Z,1004.1
2018-09-10T01:40:46.730Z,1004.07
2018-09-10T01:41:56.910Z,1004.08
2018-09-10T01:43:06.978Z,1004.1
2018-09-10T01:44:17.066Z,1004.08
2018-09-10T01:45:27.144Z,1004.08
2018-09-10T01:46:36.956Z,1004.09
2018-09-10T01:47:47.068Z,1004.1
2018-09-10T01:48:57.156Z,1004.1
2018-09-10T01:50:06.984Z,1004.08
2018-09-10T01:51:17.054Z,1004.07
2018-09-10T01:52:27.121Z,1004.11
2018-09-10T01:53:36.928Z,1004.09
2018-09-10T01:54:47.004Z,1004.05
2018-09-10T01:55:57.083Z,1004.07
2018-09-10T01:57:06.887Z,1004.06
2018-09-10T01:58:17.010Z,1004.05
2018-09-10T01:59:27.079Z,1004.02
2018-09-10T02:00:36.913Z,1004.06
2018-09-10T02:01:46.984Z,1004.05
2018-09-10T02:02:56.785Z,1004.02
2018-09-10T02:04:06.868Z,1004.01
2018-09-10T02:05:16.691Z,1004.02
2018-09-10T02:06:26.509Z,1004.03
2018-09-10T02:07:36.329Z,1003.99
2018-09-10T02:08:46.415Z,1003.98
2018-09-10T02:09:56.223Z,1003.97
2018-09-10T02:11:06.195Z,1003.93
2018-09-10T02:12:16.254Z,1003.99
2018-09-10T02:13:25.558Z,1003.98
2018-09-10T02:14:35.618Z,1004.01
2018-09-10T02:15:45.427Z,1004.04
2018-09-10T02:16:55.591Z,1004.08
2018-09-10T02:18:05.582Z,1004.08
2018-09-10T02:19:15.379Z,1004.09
2018-09-10T02:20:25.217Z,1004.06
2018-09-10T02:21:35.470Z,1004.07
2018-09-10T02:22:45.296Z,1004.05
2018-09-10T02:23:55.097Z,1004.05
2018-09-10T02:25:05.176Z,1004.03
2018-09-10T02:26:15.252Z,1004.01
2018-09-10T02:27:25.422Z,1003.96
2018-09-10T02:28:36.061Z,1003.93
2018-09-10T02:29:46.145Z,1003.9
2018-09-10T02:30:56.217Z,1003.94
2018-09-10T02:32:06.336Z,1003.93
2018-09-10T02:33:16.406Z,1003.9
2018-09-10T02:34:26.237Z,1003.86
2018-09-10T02:35:36.312Z,1003.86
2018-09-10T02:36:46.396Z,1003.93
2018-09-10T02:37:56.475Z,1003.89
2018-09-10T02:39:06.581Z,1003.9
2018-09-10T02:40:16.636Z,1003.91
2018-09-10T02:41:26.465Z,1003.97
2018-09-10T02:42:36.543Z,1003.94
2018-09-10T02:43:46.381Z,1003.99
2018-09-10T02:44:56.487Z,1003.99
2018-09-10T02:46:06.361Z,1004
2018-09-10T02:47:16.166Z,1003.99
2018-09-10T02:48:26.254Z,1004
2018-09-10T02:49:36.334Z,1003.99
2018-09-10T02:50:46.418Z,1004
2018-09-10T02:51:56.236Z,1004.03
2018-09-10T02:53:06.332Z,1004.04
2018-09-10T02:54:16.661Z,1004.02
2018-09-10T02:55:26.758Z,1004.01
2018-09-10T02:56:36.842Z,1004.05
2018-09-10T02:57:47.016Z,1004.02
2018-09-10T02:58:56.828Z,1003.99
2018-09-10T03:00:06.894Z,1003.97
2018-09-10T03:01:16.969Z,1004.01
2018-09-10T03:02:27.059Z,1004
2018-09-10T03:34:40.747Z,1003.95
2018-09-10T03:35:50.818Z,1003.94
2018-09-10T03:37:00.895Z,1003.89
2018-09-10T03:38:10.957Z,1003.94
2018-09-10T03:39:20.772Z,1003.91
2018-09-10T03:40:30.895Z,1003.9
2018-09-10T03:41:40.718Z,1003.89
2018-09-10T03:42:50.534Z,1003.88
2018-09-10T03:44:00.606Z,1003.89
2018-09-10T03:45:10.398Z,1003.93
2018-09-10T03:46:20.468Z,1003.91
2018-09-10T03:47:30.560Z,1003.89
2018-09-10T03:48:40.706Z,1003.94
2018-09-10T03:49:50.535Z,1003.93
2018-09-10T03:51:00.821Z,1003.94
2018-09-10T03:52:10.383Z,1003.94
2018-09-10T03:53:20.467Z,1003.92
2018-09-10T03:54:30.561Z,1003.94
2018-09-10T03:55:40.647Z,1003.96
2018-09-10T03:56:50.739Z,1003.97
2018-09-10T03:58:00.874Z,1003.95
2018-09-10T03:59:10.937Z,1004.01
2018-09-10T04:00:21.012Z,1003.98
2018-09-10T04:01:30.837Z,1004.02
2018-09-10T04:02:40.913Z,1004.04
2018-09-10T04:03:50.812Z,1004.06
2018-09-10T04:05:01.227Z,1004.02
2018-09-10T04:06:11.292Z,1004.04
2018-09-10T04:07:21.393Z,1004.1
2018-09-10T04:08:31.224Z,1004.08
2018-09-10T04:09:41.302Z,1004.13
2018-09-10T04:10:51.370Z,1004.17
2018-09-10T04:12:01.460Z,1004.19
2018-09-10T04:13:11.548Z,1004.19
2018-09-10T04:14:21.626Z,1004.22
2018-09-10T04:15:31.712Z,1004.18
2018-09-10T04:16:41.783Z,1004.19
2018-09-10T04:17:51.846Z,1004.23
2018-09-10T04:19:01.944Z,1004.2
2018-09-10T04:20:12.035Z,1004.24
2018-09-10T04:21:21.827Z,1004.21
2018-09-10T04:22:31.881Z,1004.22
2018-09-10T04:23:41.961Z,1004.22
2018-09-10T04:24:52.272Z,1004.28
2018-09-10T04:26:02.436Z,1004.27
2018-09-10T04:27:13.075Z,1004.28
2018-09-10T04:28:23.152Z,1004.26
2018-09-10T04:29:33.461Z,1004.28
2018-09-10T04:30:43.248Z,1004.27
2018-09-10T04:31:53.326Z,1004.32
2018-09-10T04:33:03.551Z,1004.31
2018-09-10T04:34:13.634Z,1004.28
2018-09-10T04:35:23.457Z,1004.29
2018-09-10T04:36:33.278Z,1004.24
2018-09-10T04:37:43.374Z,1004.27
2018-09-10T04:38:53.257Z,1004.28
2018-09-10T04:40:03.331Z,1004.3
2018-09-10T04:41:13.412Z,1004.33
2018-09-10T04:42:23.688Z,1004.35
2018-09-10T04:43:33.984Z,1004.36
2018-09-10T04:44:44.072Z,1004.34
2018-09-10T04:45:53.886Z,1004.44
2018-09-10T04:47:03.967Z,1004.39
2018-09-10T04:48:14.063Z,1004.38
2018-09-10T04:49:24.132Z,1004.34
2018-09-10T04:50:34.235Z,1004.3
2018-09-10T04:51:44.047Z,1004.28
2018-09-10T04:52:54.131Z,1004.25
2018-09-10T04:54:03.956Z,1004.28
2018-09-10T04:55:13.785Z,1004.26
2018-09-10T04:56:23.863Z,1004.3
2018-09-10T04:57:33.954Z,1004.26
2018-09-10T04:58:44.031Z,1004.26
2018-09-10T04:59:53.584Z,1004.27
2018-09-10T05:01:03.688Z,1004.35
2018-09-10T05:02:13.780Z,1004.39
2018-09-10T05:03:23.642Z,1004.43
2018-09-10T05:04:33.757Z,1004.4
2018-09-10T05:05:43.959Z,1004.4
2018-09-10T05:06:54.281Z,1004.42
2018-09-10T05:08:04.105Z,1004.44
2018-09-10T05:09:14.187Z,1004.43
2018-09-10T05:10:24.009Z,1004.42
2018-09-10T05:11:33.585Z,1004.44
2018-09-10T05:12:43.394Z,1004.41
2018-09-10T05:13:53.516Z,1004.45
2018-09-10T05:15:03.354Z,1004.43
2018-09-10T05:16:13.425Z,1004.44
2018-09-10T05:17:23.536Z,1004.48
2018-09-10T05:18:33.628Z,1004.52
2018-09-10T05:19:43.744Z,1004.54
2018-09-10T05:20:53.827Z,1004.55
2018-09-10T05:22:04.002Z,1004.58
2018-09-10T05:23:14.505Z,1004.58
2018-09-10T05:24:24.605Z,1004.6
2018-09-10T05:25:34.688Z,1004.67
2018-09-10T05:26:44.781Z,1004.66
2018-09-10T05:27:54.866Z,1004.68
2018-09-10T05:29:05.131Z,1004.64
2018-09-10T05:30:15.210Z,1004.65
2018-09-10T05:31:25.014Z,1004.66
2018-09-10T05:32:34.856Z,1004.67
2018-09-10T05:33:44.991Z,1004.66
2018-09-10T05:34:55.072Z,1004.68
2018-09-10T05:36:05.160Z,1004.63
2018-09-10T05:37:15.245Z,1004.68
2018-09-10T05:38:25.318Z,1004.71
2018-09-10T05:39:35.403Z,1004.73
2018-09-10T05:40:45.478Z,1004.72
2018-09-10T05:41:55.564Z,1004.72
2018-09-10T05:43:06.150Z,1004.69
2018-09-10T05:44:16.234Z,1004.73
2018-09-10T05:45:26.319Z,1004.73
2018-09-10T05:46:36.397Z,1004.78
2018-09-10T05:47:46.204Z,1004.74
2018-09-10T05:48:56.343Z,1004.76
2018-09-10T05:50:06.442Z,1004.79
2018-09-10T05:51:16.310Z,1004.74
2018-09-10T05:52:26.410Z,1004.8
2018-09-10T05:53:36.225Z,1004.81
2018-09-10T05:54:46.033Z,1004.86
2018-09-10T05:55:56.119Z,1004.8
2018-09-10T05:57:06.046Z,1004.8
2018-09-10T05:58:15.857Z,1004.82
2018-09-10T05:59:25.670Z,1004.81
2018-09-10T06:00:35.744Z,1004.85
2018-09-10T06:01:45.636Z,1004.87
2018-09-10T06:02:55.956Z,1004.84
2018-09-10T06:04:06.132Z,1004.86
2018-09-10T06:05:15.941Z,1004.79
2018-09-10T06:06:26.078Z,1004.83
2018-09-10T06:07:36.146Z,1004.86
2018-09-10T06:08:46.285Z,1004.87
2018-09-10T06:09:56.044Z,1004.88
2018-09-10T06:11:06.120Z,1004.9
2018-09-10T06:12:16.191Z,1004.83
2018-09-10T06:13:26.291Z,1004.85
2018-09-10T06:14:36.605Z,1004.85
2018-09-10T06:15:46.704Z,1004.85
2018-09-10T06:16:56.792Z,1004.89
2018-09-10T06:18:06.848Z,1004.91
2018-09-10T06:19:16.686Z,1004.89
2018-09-10T06:20:26.242Z,1004.89
2018-09-10T06:21:36.307Z,1004.9
2018-09-10T06:22:46.392Z,1004.88
2018-09-10T06:23:56.465Z,1004.92
2018-09-10T06:25:06.551Z,1004.92
2018-09-10T06:26:16.707Z,1004.91
2018-09-10T06:27:26.812Z,1004.95
2018-09-10T06:28:36.907Z,1004.97
2018-09-10T06:29:46.708Z,1004.95
2018-09-10T06:30:56.770Z,1004.95
2018-09-10T06:32:06.864Z,1005
2018-09-10T06:33:16.934Z,1004.98
2018-09-10T06:34:27.004Z,1004.98
2018-09-10T06:35:37.212Z,1004.96
2018-09-10T06:36:47.028Z,1004.98
2018-09-10T06:37:57.208Z,1004.99
2018-09-10T06:39:07.288Z,1005
2018-09-10T06:40:17.360Z,1004.99
2018-09-10T06:41:27.439Z,1005.05
2018-09-10T06:42:37.254Z,1005.04
2018-09-10T06:43:47.330Z,1005.02
2018-09-10T06:44:57.438Z,1005.06
2018-09-10T06:46:07.521Z,1005.05
2018-09-10T06:47:17.598Z,1005.08
2018-09-10T06:48:27.162Z,1005.09
2018-09-10T06:49:36.710Z,1005.1
2018-09-10T06:50:46.777Z,1005.14
2018-09-10T06:51:56.850Z,1005.19
2018-09-10T06:53:06.931Z,1005.15
2018-09-10T06:54:17.019Z,1005.1
2018-09-10T06:55:27.150Z,1005.14
2018-09-10T06:56:37.252Z,1005.1
2018-09-10T06:57:47.340Z,1005.15
2018-09-10T06:58:57.416Z,1005.14
2018-09-10T07:00:07.277Z,1005.14
2018-09-10T07:01:16.967Z,1005.15
2018-09-10T07:02:27.045Z,1005.12
2018-09-10T07:03:37.121Z,1005.16
2018-09-10T07:04:47.198Z,1005.16
2018-09-10T07:05:57.018Z,1005.19
2018-09-10T07:07:07.159Z,1005.17
2018-09-10T07:08:17.317Z,1005.16
2018-09-10T07:09:27.401Z,1005.19
2018-09-10T07:10:37.223Z,1005.22
2018-09-10T07:11:47.043Z,1005.2
2018-09-10T07:12:57.215Z,1005.24
2018-09-10T07:14:07.813Z,1005.2
2018-09-10T07:15:17.625Z,1005.28
2018-09-10T07:16:27.431Z,1005.26
2018-09-10T07:17:37.244Z,1005.27
2018-09-10T07:18:47.494Z,1005.28
2018-09-10T07:19:58.386Z,1005.32
2018-09-10T07:21:08.514Z,1005.26
2018-09-10T07:22:18.840Z,1005.3
2018-09-10T07:23:28.908Z,1005.29
2018-09-10T07:24:39.074Z,1005.29
2018-09-10T07:25:49.160Z,1005.32
2018-09-10T07:26:59.239Z,1005.31
2018-09-10T07:28:09.320Z,1005.31
2018-09-10T07:29:19.206Z,1005.25
2018-09-10T07:30:29.335Z,1005.25
2018-09-10T07:31:39.174Z,1005.31
2018-09-10T07:32:49.287Z,1005.25
2018-09-10T07:33:59.351Z,1005.26
2018-09-10T07:35:09.420Z,1005.26
2018-09-10T07:36:19.011Z,1005.24
2018-09-10T07:37:29.102Z,1005.27
2018-09-10T07:38:39.194Z,1005.27
2018-09-10T07:39:49.287Z,1005.29
2018-09-10T07:40:59.376Z,1005.3
2018-09-10T07:42:09.462Z,1005.33
2018-09-10T07:43:19.572Z,1005.33
2018-09-10T07:44:29.978Z,1005.33
2018-09-10T07:45:40.058Z,1005.3
2018-09-10T07:46:50.138Z,1005.29
2018-09-10T07:47:59.998Z,1005.32
2018-09-10T07:49:09.553Z,1005.32
2018-09-10T07:50:19.389Z,1005.34
2018-09-10T07:51:29.651Z,1005.36
2018-09-10T07:52:39.482Z,1005.39
2018-09-10T07:53:49.593Z,1005.39
2018-09-10T07:54:59.691Z,1005.41
2018-09-10T07:56:09.783Z,1005.44
2018-09-10T07:57:19.593Z,1005.47
2018-09-10T07:58:29.407Z,1005.49
2018-09-10T07:59:39.220Z,1005.48
2018-09-10T08:00:49.357Z,1005.48
2018-09-10T08:01:59.334Z,1005.51
2018-09-10T08:03:09.489Z,1005.52
2018-09-10T08:04:19.623Z,1005.51
2018-09-10T08:05:29.518Z,1005.52
2018-09-10T08:06:39.609Z,1005.48
2018-09-10T08:07:49.701Z,1005.55
2018-09-10T08:08:59.528Z,1005.53
2018-09-10T08:10:09.975Z,1005.52
2018-09-10T08:11:20.294Z,1005.52
2018-09-10T08:12:30.388Z,1005.56
2018-09-10T08:13:40.210Z,1005.5
2018-09-10T08:14:50.312Z,1005.53
2018-09-10T08:16:00.466Z,1005.5
2018-09-10T08:17:10.031Z,1005.48
2018-09-10T08:18:19.830Z,1005.44
2018-09-10T08:19:29.921Z,1005.41
2018-09-10T08:20:40.016Z,1005.45
2018-09-10T08:21:49.839Z,1005.44
2018-09-10T08:22:59.913Z,1005.41
2018-09-10T08:24:10.012Z,1005.42
2018-09-10T08:25:34.832Z,1005.4
2018-09-10T08:26:44.649Z,1005.4
2018-09-10T08:27:54.529Z,1005.38
2018-09-10T08:29:04.374Z,1005.38
2018-09-10T08:30:29.156Z,1005.4
2018-09-10T08:31:39.496Z,1005.42
2018-09-10T08:32:49.820Z,1005.39
2018-09-10T08:33:59.639Z,1005.45
2018-09-10T08:35:09.718Z,1005.47
2018-09-10T08:36:19.851Z,1005.38
2018-09-10T08:37:29.947Z,1005.45
2018-09-10T08:38:40.029Z,1005.44
2018-09-10T08:39:50.120Z,1005.43
2018-09-10T08:41:00.891Z,1005.41
2018-09-10T08:42:11.035Z,1005.41
2018-09-10T08:43:20.856Z,1005.42
2018-09-10T08:44:30.682Z,1005.38
2018-09-10T08:45:40.774Z,1005.44
2018-09-10T08:46:50.875Z,1005.43
2018-09-10T08:48:00.963Z,1005.4
2018-09-10T08:49:10.894Z,1005.44
2018-09-10T08:50:20.977Z,1005.43
2018-09-10T08:51:30.842Z,1005.44
2018-09-10T08:52:40.664Z,1005.44
2018-09-10T08:53:50.831Z,1005.43
2018-09-10T08:55:01.771Z,1005.4
2018-09-10T08:56:13.093Z,1005.43
2018-09-10T08:57:24.490Z,1005.43
2018-09-10T08:58:34.330Z,1005.45
2018-09-10T08:59:44.406Z,1005.45
2018-09-10T09:00:54.225Z,1005.45
2018-09-10T09:02:04.189Z,1005.47
2018-09-10T09:03:14.026Z,1005.46
2018-09-10T09:04:24.128Z,1005.47
2018-09-10T09:05:33.989Z,1005.48
2018-09-10T09:06:43.550Z,1005.47
2018-09-10T09:07:53.631Z,1005.49
2018-09-10T09:09:04.115Z,1005.49
2018-09-10T09:10:14.200Z,1005.44
2018-09-10T09:11:24.624Z,1005.45
2018-09-10T09:12:34.464Z,1005.47
2018-09-10T09:13:44.562Z,1005.44
2018-09-10T09:14:54.392Z,1005.42
2018-09-10T09:16:04.463Z,1005.41
2018-09-10T09:17:14.570Z,1005.4
2018-09-10T09:18:25.070Z,1005.4
2018-09-10T09:19:35.169Z,1005.42
2018-09-10T09:20:45.271Z,1005.47
2018-09-10T09:21:55.359Z,1005.47
2018-09-10T09:23:05.755Z,1005.44
2018-09-10T09:24:16.417Z,1005.45
2018-09-10T09:25:26.254Z,1005.46
2018-09-10T09:26:36.362Z,1005.43
2018-09-10T09:27:46.453Z,1005.45
2018-09-10T09:28:56.324Z,1005.5
2018-09-10T09:30:06.232Z,1005.39
2018-09-10T09:31:16.366Z,1005.44
2018-09-10T09:32:26.211Z,1005.44
2018-09-10T09:33:36.020Z,1005.43
2018-09-10T09:34:46.171Z,1005.42
2018-09-10T09:35:56.265Z,1005.41
2018-09-10T09:37:06.418Z,1005.42
2018-09-10T09:38:16.228Z,1005.37
2018-09-10T09:39:26.330Z,1005.39
2018-09-10T09:40:36.706Z,1005.35
2018-09-10T09:41:46.785Z,1005.31
2018-09-10T09:42:56.623Z,1005.29
2018-09-10T09:44:06.867Z,1005.24
2018-09-10T09:45:16.675Z,1005.32
2018-09-10T09:46:26.824Z,1005.32
2018-09-10T09:47:36.905Z,1005.27
2018-09-10T09:48:46.968Z,1005.28
2018-09-10T09:49:57.048Z,1005.3
2018-09-10T09:51:07.208Z,1005.27
2018-09-10T09:52:17.808Z,1005.29
2018-09-10T09:53:27.634Z,1005.29
2018-09-10T09:54:37.716Z,1005.29
2018-09-10T09:55:47.530Z,1005.29
2018-09-10T09:56:57.625Z,1005.25
2018-09-10T09:58:07.540Z,1005.23
2018-09-10T09:59:17.358Z,1005.22
2018-09-10T10:00:27.174Z,1005.26
2018-09-10T10:01:37.263Z,1005.26
2018-09-10T10:02:47.349Z,1005.3
2018-09-10T10:03:57.537Z,1005.26
2018-09-10T10:05:07.938Z,1005.28
2018-09-10T10:06:17.769Z,1005.28
2018-09-10T10:07:27.897Z,1005.26
2018-09-10T10:08:37.980Z,1005.25
2018-09-10T10:09:47.853Z,1005.26
2018-09-10T10:10:57.949Z,1005.22
2018-09-10T10:12:08.282Z,1005.2
2018-09-10T10:13:18.764Z,1005.16
2018-09-10T10:14:28.852Z,1005.17
2018-09-10T10:15:38.992Z,1005.16
2018-09-10T10:16:48.805Z,1005.13
2018-09-10T10:17:58.898Z,1005.1
2018-09-10T10:19:08.711Z,1005.09
2018-09-10T10:20:18.795Z,1005.09
2018-09-10T10:21:28.680Z,1005.13
2018-09-10T10:22:38.787Z,1005.12
2018-09-10T10:23:48.886Z,1005.15
2018-09-10T10:24:58.985Z,1005.18
2018-09-10T10:26:09.080Z,1005.18
2018-09-10T10:27:19.262Z,1005.18
2018-09-10T10:28:29.369Z,1005.17
2018-09-10T10:29:39.454Z,1005.14
2018-09-10T10:30:49.539Z,1005.16
2018-09-10T10:31:59.613Z,1005.1
2018-09-10T10:33:09.750Z,1005.07
2018-09-10T10:34:19.851Z,1005.04
2018-09-10T10:35:29.947Z,1005.03
2018-09-10T10:36:40.024Z,1005.02
2018-09-10T10:37:49.876Z,1004.99
2018-09-10T10:38:59.499Z,1004.98
2018-09-10T10:40:09.472Z,1005.01
2018-09-10T10:41:19.576Z,1005.02
2018-09-10T10:42:29.669Z,1005.01
2018-09-10T10:43:39.753Z,1005.03
2018-09-10T10:44:49.841Z,1005.03
2018-09-10T10:45:59.929Z,1005.02
2018-09-10T10:47:10.011Z,1005.03
2018-09-10T10:48:19.890Z,1005.01
2018-09-10T10:49:29.741Z,1005.05
2018-09-10T10:50:39.813Z,1005
2018-09-10T10:51:49.902Z,1005
2018-09-10T10:52:59.980Z,1004.95
2018-09-10T10:54:10.089Z,1004.97
2018-09-10T10:55:19.913Z,1004.93
2018-09-10T10:56:29.785Z,1004.9
2018-09-10T10:57:39.619Z,1004.92
2018-09-10T10:58:49.428Z,1004.88
2018-09-10T10:59:59.230Z,1004.91
2018-09-10T11:01:09.323Z,1004.88
2018-09-10T11:02:18.893Z,1004.9
2018-09-10T11:03:28.964Z,1004.87
2018-09-10T11:04:39.039Z,1004.86
2018-09-10T11:05:49.132Z,1004.87
2018-09-10T11:06:58.959Z,1004.83
2018-09-10T11:08:09.030Z,1004.86
2018-09-10T11:09:18.849Z,1004.86
2018-09-10T11:10:28.944Z,1004.86
2018-09-10T11:11:39.023Z,1004.82
2018-09-10T11:12:48.852Z,1004.79
2018-09-10T11:13:58.933Z,1004.78
2018-09-10T11:15:09.027Z,1004.76
2018-09-10T11:16:18.849Z,1004.74
2018-09-10T11:17:29.001Z,1004.76
2018-09-10T11:18:38.821Z,1004.75
2018-09-10T11:19:48.896Z,1004.75
2018-09-10T11:20:59.002Z,1004.79
2018-09-10T11:22:08.570Z,1004.77
2018-09-10T11:23:18.485Z,1004.74
2018-09-10T11:24:28.782Z,1004.76
2018-09-10T11:25:38.923Z,1004.72
2018-09-10T11:26:49.027Z,1004.76
2018-09-10T11:27:59.126Z,1004.75
2018-09-10T11:29:09.252Z,1004.75
2018-09-10T11:30:19.365Z,1004.72
2018-09-10T11:31:29.707Z,1004.73
2018-09-10T11:32:39.526Z,1004.69
2018-09-10T11:33:49.354Z,1004.68
2018-09-10T11:34:59.421Z,1004.7
2018-09-10T11:36:09.268Z,1004.65
2018-09-10T11:37:19.417Z,1004.65
2018-09-10T11:38:29.527Z,1004.73
2018-09-10T11:39:39.627Z,1004.7
2018-09-10T11:40:49.449Z,1004.63
2018-09-10T11:41:59.553Z,1004.67
2018-09-10T11:43:09.645Z,1004.66
2018-09-10T11:44:19.745Z,1004.67
2018-09-10T11:45:29.834Z,1004.63
2018-09-10T11:46:40.038Z,1004.64
2018-09-10T11:47:50.270Z,1004.66
2018-09-10T11:49:00.463Z,1004.68
2018-09-10T11:50:10.570Z,1004.65
2018-09-10T11:51:20.686Z,1004.6
2018-09-10T11:52:30.792Z,1004.64
2018-09-10T11:53:40.899Z,1004.61
2018-09-10T11:54:51.009Z,1004.62
2018-09-10T11:56:01.107Z,1004.53
2018-09-10T11:57:11.259Z,1004.5
2018-09-10T11:58:20.828Z,1004.53
2018-09-10T11:59:30.930Z,1004.55
2018-09-10T12:00:40.993Z,1004.48
2018-09-10T12:01:51.132Z,1004.48
2018-09-10T12:03:01.443Z,1004.46
2018-09-10T12:04:11.549Z,1004.42
2018-09-10T12:05:21.381Z,1004.37
2018-09-10T12:06:31.212Z,1004.39
2018-09-10T12:07:41.311Z,1004.33
2018-09-10T12:08:51.220Z,1004.34
2018-09-10T12:10:01.337Z,1004.38
2018-09-10T12:11:11.435Z,1004.35
2018-09-10T12:12:21.525Z,1004.34
2018-09-10T12:13:31.652Z,1004.34
2018-09-10T12:14:42.210Z,1004.32
2018-09-10T12:15:52.294Z,1004.36
2018-09-10T12:17:02.394Z,1004.32
2018-09-10T12:18:12.475Z,1004.33
2018-09-10T12:19:22.314Z,1004.36
2018-09-10T12:20:32.476Z,1004.35
2018-09-10T12:21:42.628Z,1004.29
2018-09-10T12:22:52.703Z,1004.34
2018-09-10T12:24:02.548Z,1004.32
2018-09-10T12:25:12.634Z,1004.29
2018-09-10T12:26:22.765Z,1004.26
2018-09-10T12:27:32.771Z,1004.41
2018-09-10T12:28:42.886Z,1004.32
2018-09-10T12:29:52.994Z,1004.31
2018-09-10T12:31:02.559Z,1004.27
2018-09-10T12:32:12.648Z,1004.26
2018-09-10T12:33:22.978Z,1004.28
2018-09-10T12:34:32.525Z,1004.26
2018-09-10T12:35:42.355Z,1004.26
2018-09-10T12:36:52.164Z,1004.29
2018-09-10T12:38:02.303Z,1004.3
2018-09-10T12:39:12.377Z,1004.3
2018-09-10T12:40:22.790Z,1004.3
2018-09-10T12:41:32.890Z,1004.26
2018-09-10T12:42:42.726Z,1004.34
2018-09-10T12:43:52.913Z,1004.34
2018-09-10T12:45:03.013Z,1004.32
2018-09-10T12:46:13.103Z,1004.29
2018-09-10T12:47:22.803Z,1004.28
2018-09-10T12:48:32.871Z,1004.27
2018-09-10T12:49:43.020Z,1004.27
2018-09-10T12:50:53.100Z,1004.26
2018-09-10T12:52:03.180Z,1004.28
2018-09-10T12:53:13.279Z,1004.31
2018-09-10T12:54:23.388Z,1004.29
2018-09-10T12:55:33.505Z,1004.29
2018-09-10T12:56:43.611Z,1004.31
2018-09-10T12:57:53.707Z,1004.37
2018-09-10T12:59:03.542Z,1004.29
2018-09-10T13:00:13.676Z,1004.3
2018-09-10T13:01:23.810Z,1004.27
2018-09-10T13:02:33.712Z,1004.25
2018-09-10T13:03:43.799Z,1004.22
2018-09-10T13:04:53.630Z,1004.21
2018-09-10T13:06:03.436Z,1004.26
2018-09-10T13:07:13.551Z,1004.19
2018-09-10T13:08:23.634Z,1004.18
2018-09-10T13:09:33.718Z,1004.19
2018-09-10T13:10:43.811Z,1004.2
2018-09-10T13:11:54.047Z,1004.11
2018-09-10T13:13:04.134Z,1004.08
2018-09-10T13:14:14.228Z,1004.06
2018-09-10T13:15:24.384Z,1004.04
2018-09-10T13:16:34.470Z,1004.01
2018-09-10T13:17:44.568Z,1004.07
2018-09-10T13:18:54.671Z,1004.1
2018-09-10T13:20:04.494Z,1004.02
2018-09-10T13:21:14.683Z,1004.14
2018-09-10T13:22:24.790Z,1004.1
2018-09-10T13:23:34.879Z,1004.1
2018-09-10T13:24:44.951Z,1004.11
2018-09-10T13:25:54.762Z,1004.03
2018-09-10T13:27:04.862Z,1004.04
2018-09-10T13:28:14.686Z,1003.99
2018-09-10T13:29:24.803Z,1004.01
2018-09-10T13:30:34.936Z,1003.96
2018-09-10T13:31:45.043Z,1003.97
2018-09-10T13:32:54.828Z,1003.96
2018-09-10T13:34:04.937Z,1003.87
2018-09-10T13:35:15.019Z,1003.86
2018-09-10T13:36:24.836Z,1003.84
2018-09-10T13:37:35.185Z,1003.87
2018-09-10T13:38:45.313Z,1003.81
2018-09-10T13:39:55.406Z,1003.82
2018-09-10T13:41:05.480Z,1003.84
2018-09-10T13:42:15.557Z,1003.85
2018-09-10T13:43:25.649Z,1003.89
2018-09-10T13:44:35.845Z,1003.95
2018-09-10T13:45:45.932Z,1003.86
2018-09-10T13:46:56.004Z,1003.86
2018-09-10T13:48:05.852Z,1003.87
2018-09-10T13:49:15.683Z,1003.89
2018-09-10T13:50:25.773Z,1003.82
2018-09-10T13:51:35.319Z,1003.83
2018-09-10T13:52:45.417Z,1003.83
2018-09-10T13:53:55.521Z,1003.87
2018-09-10T13:55:05.580Z,1003.86
2018-09-10T13:56:15.726Z,1003.85
2018-09-10T13:57:25.817Z,1003.83
2018-09-10T13:58:35.910Z,1003.84
2018-09-10T13:59:46.074Z,1003.85
2018-09-10T14:00:56.348Z,1003.81
2018-09-10T14:02:06.492Z,1003.8
2018-09-10T14:03:16.575Z,1003.8
2018-09-10T14:04:26.715Z,1003.78
2018-09-10T14:05:36.801Z,1003.82
2018-09-10T14:06:46.923Z,1003.85
2018-09-10T14:07:57.054Z,1003.85
2018-09-10T14:09:07.190Z,1003.8
2018-09-10T14:10:17.297Z,1003.8
2018-09-10T14:11:27.472Z,1003.83
2018-09-10T14:12:37.581Z,1003.84
2018-09-10T14:13:47.496Z,1003.81
2018-09-10T14:14:57.605Z,1003.84
2018-09-10T14:16:07.701Z,1003.83
2018-09-10T14:17:18.072Z,1003.84
2018-09-10T14:18:28.708Z,1003.84
2018-09-10T14:19:39.173Z,1003.83
2018-09-10T14:20:49.297Z,1003.83
2018-09-10T14:21:59.141Z,1003.81
2018-09-10T14:23:09.253Z,1003.86
2018-09-10T14:24:19.107Z,1003.84
2018-09-10T14:25:29.332Z,1003.83
2018-09-10T14:26:38.918Z,1003.82
2018-09-10T14:27:49.032Z,1003.78
2018-09-10T14:28:58.877Z,1003.76
2018-09-10T14:30:08.988Z,1003.78
2018-09-10T14:31:18.843Z,1003.81
2018-09-10T14:32:28.945Z,1003.77
2018-09-10T14:33:39.051Z,1003.76
2018-09-10T14:34:49.272Z,1003.72
2018-09-10T14:35:59.400Z,1003.7
2018-09-10T14:37:09.736Z,1003.73
2018-09-10T14:38:20.352Z,1003.71
2018-09-10T14:39:30.468Z,1003.68
2018-09-10T14:40:40.603Z,1003.67
2018-09-10T14:41:50.468Z,1003.64